createdAt,value
2022-08-22T00:00:42.797Z,4.47
2022-08-22T00:03:01.342Z,4.32
2022-08-22T00:04:17.015Z,4.18
2022-08-22T00:07:38.847Z,5.65
2022-08-22T00:11:19.645Z,6.70
2022-08-22T00:14:53.486Z,6.07
2022-08-22T00:18:05.712Z,5.97
2022-08-22T00:21:12.448Z,4.68
2022-08-22T00:24:28.749Z,5.90
2022-08-22T00:27:45.986Z,4.55
2022-08-22T00:30:58.824Z,5.40
2022-08-22T00:34:09.153Z,4.72
2022-08-22T00:37:34.761Z,4.57
2022-08-22T00:40:53.508Z,5.97
2022-08-22T00:44:17.123Z,5.85
2022-08-22T00:47:42.650Z,5.78
2022-08-22T00:51:05.678Z,5.25
2022-08-22T00:54:39.787Z,7.25
2022-08-22T00:58:08.975Z,5.07
2022-08-22T01:01:11.901Z,5.57
2022-08-22T01:04:52.212Z,7.32
2022-08-22T01:08:39.172Z,4.72
2022-08-22T01:12:07.021Z,5.53
2022-08-22T01:15:11.895Z,4.30
2022-08-22T01:19:08.457Z,8.93
2022-08-22T01:23:30.716Z,5.53
2022-08-22T01:27:21.448Z,4.97
2022-08-22T01:31:11.568Z,5.32
2022-08-22T01:34:18.333Z,5.50
2022-08-22T01:38:19.757Z,6.20
2022-08-22T01:42:05.604Z,5.35
2022-08-22T01:45:36.264Z,4.53
2022-08-22T01:48:51.031Z,5.35
2022-08-22T01:52:44.289Z,6.25
2022-08-22T01:56:12.937Z,5.00
2022-08-22T01:59:15.104Z,7.72
2022-08-22T02:02:51.343Z,5.35
2022-08-22T02:06:04.897Z,5.80
2022-08-22T02:09:34.496Z,7.80
2022-08-22T02:13:09.651Z,7.53
2022-08-22T02:16:29.078Z,6.53
2022-08-22T02:19:44.621Z,6.07
2022-08-22T02:22:55.089Z,5.43
2022-08-22T02:25:56.773Z,6.68
2022-08-22T02:29:53.108Z,5.93
2022-08-22T02:33:34.334Z,5.97
2022-08-22T02:37:23.281Z,6.18
2022-08-22T02:40:44.450Z,4.72
2022-08-22T02:44:19.516Z,7.25
2022-08-22T02:47:41.718Z,7.18
2022-08-22T02:50:57.822Z,8.57
2022-08-22T02:54:24.728Z,7.13
2022-08-22T02:58:06.033Z,5.32
2022-08-22T03:01:02.851Z,7.53
2022-08-22T03:04:30.750Z,5.93
2022-08-22T03:07:42.384Z,5.80
2022-08-22T03:10:47.642Z,6.57
2022-08-22T03:14:12.983Z,5.68
2022-08-22T03:17:25.922Z,6.72
2022-08-22T03:20:53.173Z,6.60
2022-08-22T03:24:01.215Z,6.80
2022-08-22T03:27:32.897Z,6.75
2022-08-22T03:30:44.530Z,9.02
2022-08-22T03:33:42.172Z,7.18
2022-08-22T03:36:39.238Z,5.75
2022-08-22T03:39:59.824Z,6.38
2022-08-22T03:43:14.231Z,5.88
2022-08-22T03:46:21.636Z,5.82
2022-08-22T03:49:24.005Z,7.50
2022-08-22T03:53:15.257Z,7.05
2022-08-22T03:56:57.398Z,5.13
2022-08-22T04:00:42.020Z,4.95
2022-08-22T04:04:35.286Z,5.80
2022-08-22T04:08:06.696Z,6.30
2022-08-22T04:11:48.755Z,8.10
2022-08-22T04:15:16.216Z,6.97
2022-08-22T04:18:29.112Z,6.93
2022-08-22T04:21:52.768Z,5.45
2022-08-22T04:25:16.854Z,6.50
2022-08-22T04:28:28.004Z,7.28
2022-08-22T04:31:36.563Z,6.20
2022-08-22T04:35:03.454Z,6.10
2022-08-22T04:38:29.350Z,6.45
2022-08-22T04:42:00.668Z,5.25
2022-08-22T04:45:24.112Z,5.88
2022-08-22T04:48:48.431Z,5.70
2022-08-22T04:52:29.508Z,6.07
2022-08-22T04:56:13.397Z,8.30
2022-08-22T04:59:17.924Z,6.18
2022-08-22T05:02:24.418Z,6.15
2022-08-22T05:05:32.955Z,5.93
2022-08-22T05:08:36.033Z,7.18
2022-08-22T05:11:38.359Z,5.82
2022-08-22T05:14:46.796Z,8.30
2022-08-22T05:17:46.273Z,7.57
2022-08-22T05:20:48.074Z,10.85
2022-08-22T05:24:06.543Z,9.27
2022-08-22T05:27:22.875Z,6.40
2022-08-22T05:30:27.849Z,9.25
2022-08-22T05:33:32.247Z,7.40
2022-08-22T05:36:40.413Z,6.55
2022-08-22T05:39:40.335Z,6.80
2022-08-22T05:42:37.655Z,7.87
2022-08-22T05:45:36.299Z,6.13
2022-08-22T05:48:46.160Z,7.65
2022-08-22T05:52:05.276Z,6.97
2022-08-22T05:55:20.483Z,10.10
2022-08-22T05:58:41.385Z,6.47
2022-08-22T06:05:00.951Z,7.30
2022-08-22T06:08:20.145Z,6.75
2022-08-22T06:11:26.351Z,7.55
2022-08-22T06:14:48.165Z,5.90
2022-08-22T06:17:58.160Z,5.75
2022-08-22T06:21:06.880Z,7.13
2022-08-22T06:24:08.653Z,6.97
2022-08-22T06:27:12.730Z,5.90
2022-08-22T06:30:14.960Z,5.80
2022-08-22T06:33:18.544Z,5.60
2022-08-22T06:36:32.190Z,5.97
2022-08-22T06:39:37.796Z,5.60
2022-08-22T06:42:41.746Z,7.53
2022-08-22T06:45:40.662Z,5.45
2022-08-22T06:48:38.221Z,6.18
2022-08-22T06:51:38.021Z,5.93
2022-08-22T06:54:40.394Z,7.05
2022-08-22T06:57:50.449Z,7.05
2022-08-22T07:01:05.710Z,6.05
2022-08-22T07:04:11.279Z,8.77
2022-08-22T07:07:08.259Z,6.25
2022-08-22T07:10:05.940Z,4.80
2022-08-22T07:13:04.403Z,9.43
2022-08-22T07:16:07.741Z,7.05
2022-08-22T07:19:06.117Z,6.88
2022-08-22T07:22:26.012Z,4.93
2022-08-22T07:25:24.670Z,6.97
2022-08-22T07:28:50.798Z,5.85
2022-08-22T07:32:18.900Z,5.93
2022-08-22T07:35:26.787Z,6.57
2022-08-22T07:38:43.750Z,7.85
2022-08-22T07:42:19.220Z,6.25
2022-08-22T07:45:49.402Z,8.30
2022-08-22T07:49:08.540Z,7.05
2022-08-22T07:52:11.931Z,7.32
2022-08-22T07:55:20.358Z,6.72
2022-08-22T07:58:18.633Z,6.80
2022-08-22T08:01:20.715Z,5.68
2022-08-22T08:04:35.810Z,10.07
2022-08-22T08:07:35.688Z,7.60
2022-08-22T08:10:37.369Z,6.00
2022-08-22T08:13:46.903Z,8.00
2022-08-22T08:17:05.124Z,7.55
2022-08-22T08:20:16.269Z,5.10
2022-08-22T08:23:23.589Z,10.18
2022-08-22T08:26:30.463Z,6.85
2022-08-22T08:29:28.854Z,6.60
2022-08-22T08:32:31.982Z,5.55
2022-08-22T08:35:42.401Z,6.05
2022-08-22T08:39:24.352Z,3.28
2022-08-22T08:43:10.872Z,8.02
2022-08-22T08:46:43.352Z,5.07
2022-08-22T08:49:56.018Z,6.03
2022-08-22T08:53:18.674Z,5.55
2022-08-22T08:56:19.929Z,6.82
2022-08-22T09:00:00.793Z,4.43
2022-08-22T09:03:51.242Z,5.82
2022-08-22T09:07:06.867Z,6.57
2022-08-22T09:10:59.966Z,4.93
2022-08-22T09:14:21.421Z,5.07
2022-08-22T09:17:34.429Z,4.38
2022-08-22T09:20:51.076Z,3.03
2022-08-22T09:24:33.783Z,4.35
2022-08-22T09:27:45.551Z,6.13
2022-08-22T09:31:48.317Z,3.30
2022-08-22T09:35:14.626Z,5.00
2022-08-22T09:38:37.089Z,7.25
2022-08-22T09:42:08.127Z,2.88
2022-08-22T09:45:24.670Z,6.18
2022-08-22T09:48:31.634Z,4.05
2022-08-22T09:51:55.355Z,3.17
2022-08-22T09:55:07.913Z,3.75
2022-08-22T09:58:19.583Z,3.38
2022-08-22T10:02:03.025Z,4.40
2022-08-22T10:05:35.256Z,3.45
2022-08-22T10:09:00.832Z,2.72
2022-08-22T10:12:12.515Z,5.65
2022-08-22T10:15:35.545Z,2.65
2022-08-22T10:19:17.945Z,2.63
2022-08-22T10:23:03.729Z,3.20
2022-08-22T10:26:38.405Z,3.50
2022-08-22T10:30:06.457Z,2.95
2022-08-22T10:33:23.074Z,2.67
2022-08-22T10:36:36.140Z,3.38
2022-08-22T10:40:07.956Z,4.75
2022-08-22T10:43:14.882Z,9.02
2022-08-22T10:46:29.402Z,4.45
2022-08-22T10:50:10.744Z,4.85
2022-08-22T10:53:42.834Z,3.78
2022-08-22T10:56:59.298Z,4.45
2022-08-22T11:00:12.389Z,2.55
2022-08-22T11:03:40.829Z,3.25
2022-08-22T11:07:09.473Z,3.60
2022-08-22T11:10:34.906Z,5.47
2022-08-22T11:14:19.727Z,2.90
2022-08-22T11:18:04.985Z,2.47
2022-08-22T11:21:16.492Z,2.50
2022-08-22T11:25:07.343Z,2.20
2022-08-22T11:28:33.262Z,1.40
2022-08-22T11:31:51.949Z,3.95
2022-08-22T11:34:57.417Z,3.03
2022-08-22T11:38:28.059Z,4.85
2022-08-22T11:41:58.017Z,2.67
2022-08-22T11:45:01.066Z,2.90
2022-08-22T11:48:47.058Z,3.20
2022-08-22T11:52:13.422Z,3.90
2022-08-22T11:55:33.227Z,3.38
2022-08-22T11:58:55.586Z,2.22
2022-08-22T12:02:03.963Z,3.78
2022-08-22T12:05:21.570Z,3.92
2022-08-22T12:08:52.149Z,4.45
2022-08-22T12:12:04.574Z,2.60
2022-08-22T12:15:13.367Z,2.95
2022-08-22T12:18:42.500Z,3.00
2022-08-22T12:22:00.615Z,2.58
2022-08-22T12:25:44.521Z,2.60
2022-08-22T12:29:20.134Z,3.20
2022-08-22T12:32:45.688Z,2.08
2022-08-22T12:36:21.901Z,1.88
2022-08-22T12:39:51.042Z,2.72
2022-08-22T12:43:18.861Z,1.63
2022-08-22T12:47:02.891Z,2.15
2022-08-22T12:50:12.331Z,2.05
2022-08-22T12:53:32.381Z,1.92
2022-08-22T12:56:58.668Z,2.58
2022-08-22T13:00:22.992Z,2.83
2022-08-22T13:03:32.869Z,1.88
2022-08-22T13:06:35.622Z,1.77
2022-08-22T13:09:40.651Z,2.95
2022-08-22T13:12:50.331Z,3.30
2022-08-22T13:16:16.232Z,2.53
2022-08-22T13:19:32.046Z,2.20
2022-08-22T13:22:34.843Z,3.90
2022-08-22T13:26:10.505Z,2.58
2022-08-22T13:29:39.542Z,2.92
2022-08-22T13:32:44.671Z,2.35
2022-08-22T13:36:10.849Z,2.88
2022-08-22T13:39:38.752Z,3.30
2022-08-22T13:42:45.543Z,2.25
2022-08-22T13:45:56.733Z,3.65
2022-08-22T13:49:00.736Z,3.50
2022-08-22T13:52:29.963Z,5.53
2022-08-22T13:55:34.613Z,3.65
2022-08-22T13:58:50.114Z,4.22
2022-08-22T14:02:18.337Z,2.47
2022-08-22T14:05:33.185Z,4.47
2022-08-22T14:08:36.463Z,3.92
2022-08-22T14:12:13.625Z,3.17
2022-08-22T14:15:12.645Z,2.53
2022-08-22T14:18:10.746Z,3.30
2022-08-22T14:21:33.440Z,4.38
2022-08-22T14:28:09.439Z,2.20
2022-08-22T14:31:13.427Z,2.50
2022-08-22T14:34:14.572Z,3.95
2022-08-22T14:37:31.956Z,4.85
2022-08-22T14:40:36.437Z,3.25
2022-08-22T14:43:47.068Z,3.20
2022-08-22T14:46:54.761Z,2.13
2022-08-22T14:49:57.529Z,2.90
2022-08-22T14:53:18.269Z,3.08
2022-08-22T14:56:23.963Z,3.80
2022-08-22T14:59:37.773Z,2.72
2022-08-22T15:02:35.379Z,5.32
2022-08-22T15:05:50.763Z,2.97
2022-08-22T15:08:50.518Z,2.70
2022-08-22T15:11:48.716Z,6.68
2022-08-22T15:14:52.473Z,2.22
2022-08-22T15:17:49.529Z,2.70
2022-08-22T15:21:06.833Z,3.97
2022-08-22T15:24:13.156Z,2.45
2022-08-22T15:27:11.394Z,1.95
2022-08-22T15:30:18.860Z,5.45
2022-08-22T15:33:45.415Z,4.45
2022-08-22T15:37:07.839Z,2.67
2022-08-22T15:40:27.718Z,3.85
2022-08-22T15:43:34.953Z,4.60
2022-08-22T15:46:41.280Z,5.75
2022-08-22T15:50:00.540Z,4.53
2022-08-22T15:53:18.550Z,2.17
2022-08-22T15:56:15.500Z,1.95
2022-08-22T15:59:26.999Z,2.25
2022-08-22T16:02:53.519Z,3.83
2022-08-22T16:05:56.936Z,2.70
2022-08-22T16:08:55.334Z,5.28
2022-08-22T16:11:55.457Z,4.38
2022-08-22T16:14:53.328Z,2.60
2022-08-22T16:17:53.554Z,3.20
2022-08-22T16:23:51.087Z,4.25
2022-08-22T16:26:48.833Z,5.35
2022-08-22T16:29:46.307Z,4.18
2022-08-22T16:32:53.269Z,3.42
2022-08-22T16:36:20.961Z,3.55
2022-08-22T16:39:23.665Z,3.40
2022-08-22T16:42:25.005Z,3.05
2022-08-22T16:45:24.617Z,2.55
2022-08-22T16:48:37.432Z,6.13
2022-08-22T16:51:34.493Z,4.57
2022-08-22T16:54:53.567Z,3.95
2022-08-22T16:58:17.730Z,3.30
2022-08-22T17:01:26.782Z,2.78
2022-08-22T17:04:51.462Z,2.45
2022-08-22T17:07:54.094Z,3.72
2022-08-22T17:11:40.622Z,3.25
2022-08-22T17:15:07.119Z,5.40
2022-08-22T17:18:25.546Z,3.42
2022-08-22T17:21:29.436Z,4.90
2022-08-22T17:24:50.954Z,3.78
2022-08-22T17:28:22.972Z,3.33
2022-08-22T17:31:54.823Z,4.05
2022-08-22T17:35:24.625Z,3.45
2022-08-22T17:38:51.847Z,4.20
2022-08-22T17:42:19.022Z,2.75
2022-08-22T17:46:00.253Z,6.35
2022-08-22T17:49:17.339Z,2.95
2022-08-22T17:52:38.026Z,5.28
2022-08-22T17:55:52.770Z,4.70
2022-08-22T17:59:20.931Z,3.10
2022-08-22T18:02:50.228Z,3.22
2022-08-22T18:05:49.127Z,3.45
2022-08-22T18:09:18.574Z,4.43
2022-08-22T18:12:33.677Z,4.55
2022-08-22T18:16:05.845Z,2.72
2022-08-22T18:19:16.916Z,5.63
2022-08-22T18:22:31.750Z,3.92
2022-08-22T18:25:41.571Z,3.90
2022-08-22T18:29:13.266Z,3.28
2022-08-22T18:32:35.677Z,4.90
2022-08-22T18:35:54.701Z,4.32
2022-08-22T18:39:15.613Z,4.05
2022-08-22T18:42:33.233Z,4.43
2022-08-22T18:45:48.284Z,5.82
2022-08-22T18:49:11.675Z,3.05
2022-08-22T18:52:20.201Z,3.35
2022-08-22T18:55:28.311Z,3.10
2022-08-22T18:59:05.448Z,4.88
2022-08-22T19:02:21.043Z,3.00
2022-08-22T19:05:47.016Z,4.13
2022-08-22T19:09:03.330Z,3.00
2022-08-22T19:12:50.048Z,3.88
2022-08-22T19:15:59.354Z,5.15
2022-08-22T19:19:03.380Z,2.90
2022-08-22T19:22:33.895Z,4.38
2022-08-22T19:25:30.765Z,4.65
2022-08-22T19:28:36.742Z,3.25
2022-08-22T19:31:37.203Z,4.30
2022-08-22T19:34:46.900Z,3.60
2022-08-22T19:37:57.757Z,2.75
2022-08-22T19:40:58.593Z,3.40
2022-08-22T19:43:55.579Z,3.17
2022-08-22T19:47:26.648Z,4.60
2022-08-22T19:50:27.360Z,4.78
2022-08-22T19:54:20.362Z,4.30
2022-08-22T19:57:23.071Z,4.00
2022-08-22T20:01:07.512Z,4.07
2022-08-22T20:04:54.962Z,5.15
2022-08-22T20:08:06.722Z,4.03
2022-08-22T20:11:18.820Z,3.53
2022-08-22T20:14:33.594Z,2.42
2022-08-22T20:17:42.244Z,5.65
2022-08-22T20:20:59.810Z,4.57
2022-08-22T20:23:56.806Z,6.75
2022-08-22T20:27:13.272Z,3.90
2022-08-22T20:30:29.641Z,5.55
2022-08-22T20:33:41.591Z,3.17
2022-08-22T20:36:44.777Z,2.95
2022-08-22T20:40:55.305Z,3.40
2022-08-22T20:43:53.525Z,4.60
2022-08-22T20:47:11.322Z,7.18
2022-08-22T20:50:11.926Z,5.63
2022-08-22T20:53:17.384Z,5.03
2022-08-22T20:56:14.350Z,3.75
2022-08-22T20:59:39.754Z,3.50
2022-08-22T21:03:01.905Z,4.22
2022-08-22T21:06:19.358Z,4.28
2022-08-22T21:09:39.970Z,5.57
2022-08-22T21:12:36.808Z,5.30
2022-08-22T21:15:52.525Z,5.93
2022-08-22T21:18:52.478Z,6.32
2022-08-22T21:21:49.425Z,4.28
2022-08-22T21:24:47.187Z,6.95
2022-08-22T21:27:48.354Z,7.35
2022-08-22T21:30:47.333Z,4.88
2022-08-22T21:33:47.376Z,4.13
2022-08-22T21:36:44.602Z,7.65
2022-08-22T21:39:49.796Z,6.03
2022-08-22T21:43:10.137Z,3.17
2022-08-22T21:46:07.945Z,7.50
2022-08-22T21:49:05.392Z,5.65
2022-08-22T21:52:02.275Z,3.53
2022-08-22T21:55:32.803Z,3.97
2022-08-22T21:58:36.655Z,5.70
2022-08-22T22:01:34.184Z,4.47
2022-08-22T22:04:31.713Z,4.28
2022-08-22T22:07:29.230Z,4.43
2022-08-22T22:10:26.330Z,4.68
2022-08-22T22:13:24.101Z,5.55
2022-08-22T22:16:28.758Z,3.78
2022-08-22T22:19:25.661Z,4.53
2022-08-22T22:22:22.572Z,3.90
2022-08-22T22:25:39.016Z,5.95
2022-08-22T22:28:47.240Z,4.50
2022-08-22T22:31:44.102Z,8.02
2022-08-22T22:34:41.081Z,6.80
2022-08-22T22:37:38.030Z,5.57
2022-08-22T22:43:36.334Z,3.97
2022-08-22T22:46:33.195Z,4.80
2022-08-22T22:49:32.517Z,5.03
2022-08-22T22:52:29.691Z,6.32
2022-08-22T22:55:26.557Z,5.57
2022-08-22T22:58:23.657Z,4.88
2022-08-22T23:01:25.584Z,4.82
2022-08-22T23:04:22.557Z,5.47
2022-08-22T23:07:20.847Z,5.13
2022-08-22T23:10:21.898Z,3.13
2022-08-22T23:13:19.202Z,6.65
2022-08-22T23:16:23.229Z,4.03
2022-08-22T23:19:20.086Z,6.38
2022-08-22T23:22:17.273Z,4.13
2022-08-22T23:25:15.015Z,3.95
2022-08-22T23:28:11.935Z,4.13
2022-08-22T23:31:26.403Z,4.05
2022-08-22T23:34:27.521Z,3.47
2022-08-22T23:37:24.620Z,3.95
2022-08-22T23:40:21.565Z,3.70
2022-08-22T23:43:18.438Z,3.97
2022-08-22T23:46:17.011Z,4.20
2022-08-22T23:49:15.666Z,4.63
2022-08-22T23:52:13.703Z,6.45
2022-08-22T23:55:10.585Z,5.88
2022-08-22T23:58:07.455Z,5.97
